AXM1783 WBGG-WIOO
Flight info
| Callsign | AXM1783 |
|---|---|
| Flight time | 0h 35m |
| Altitude | 18000 |
| Route | PAPS1C PAPSA PAPS1G |
| Aircraft | A320/L-V/N |
Departure
| Time | 2026-04-27 12:20 |
|---|---|
| Airport | Kuching International Airport (WBGG) |
Arrival
| Time | 2026-04-27 12:56 |
|---|---|
| Airport | Supadio International Airport (WIOO) |
| Time | Latitude | Longitude | Altitude | Speed | Heading |
|---|---|---|---|---|---|
| 2026-04-27 12:02 | 1.48660 | 110.34237 | 87 ft | 0 kts | 339° |
| 2026-04-27 12:12 | 1.48648 | 110.34242 | 87 ft | 2 kts | 340° |
| 2026-04-27 12:12 | 1.48634 | 110.34247 | 87 ft | 2 kts | 339° |
| 2026-04-27 12:12 | 1.48620 | 110.34252 | 87 ft | 2 kts | 339° |
| 2026-04-27 12:12 | 1.48606 | 110.34257 | 87 ft | 1 kts | 354° |
| 2026-04-27 12:13 | 1.48591 | 110.34251 | 87 ft | 0 kts | 63° |
| 2026-04-27 12:13 | 1.48590 | 110.34246 | 87 ft | 1 kts | 75° |
| 2026-04-27 12:13 | 1.48588 | 110.34242 | 87 ft | 0 kts | 68° |
| 2026-04-27 12:15 | 1.48588 | 110.34243 | 87 ft | 0 kts | 69° |
| 2026-04-27 12:15 | 1.48593 | 110.34255 | 87 ft | 3 kts | 70° |
| 2026-04-27 12:15 | 1.48607 | 110.34291 | 87 ft | 7 kts | 69° |
| 2026-04-27 12:16 | 1.48629 | 110.34348 | 87 ft | 9 kts | 68° |
| 2026-04-27 12:16 | 1.48659 | 110.34423 | 86 ft | 13 kts | 66° |
| 2026-04-27 12:16 | 1.48700 | 110.34528 | 83 ft | 18 kts | 73° |
| 2026-04-27 12:16 | 1.48651 | 110.34624 | 82 ft | 13 kts | 84° |
| 2026-04-27 12:17 | 1.48674 | 110.34691 | 81 ft | 16 kts | 70° |
| 2026-04-27 12:17 | 1.48722 | 110.34811 | 80 ft | 20 kts | 68° |
| 2026-04-27 12:17 | 1.48779 | 110.34952 | 77 ft | 23 kts | 69° |
| 2026-04-27 12:17 | 1.48841 | 110.35107 | 74 ft | 23 kts | 66° |
| 2026-04-27 12:18 | 1.48904 | 110.35258 | 75 ft | 22 kts | 69° |
| 2026-04-27 12:18 | 1.48964 | 110.35410 | 70 ft | 24 kts | 68° |
| 2026-04-27 12:18 | 1.49028 | 110.35571 | 64 ft | 26 kts | 69° |
| 2026-04-27 12:18 | 1.49100 | 110.35749 | 55 ft | 28 kts | 68° |
| 2026-04-27 12:19 | 1.49148 | 110.35897 | 50 ft | 18 kts | 102° |
| 2026-04-27 12:19 | 1.49050 | 110.35982 | 45 ft | 14 kts | 134° |
| 2026-04-27 12:19 | 1.49003 | 110.35973 | 44 ft | 6 kts | 260° |
| 2026-04-27 12:19 | 1.48988 | 110.35928 | 46 ft | 15 kts | 250° |
| 2026-04-27 12:20 | 1.48851 | 110.35584 | 64 ft | 87 kts | 247° |
| 2026-04-27 12:20 | 1.48549 | 110.34824 | 84 ft | 145 kts | 249° |
| 2026-04-27 12:20 | 1.48160 | 110.33798 | 420 ft | 163 kts | 249° |
| 2026-04-27 12:20 | 1.47730 | 110.32732 | 1014 ft | 167 kts | 248° |
| 2026-04-27 12:21 | 1.47282 | 110.31670 | 1650 ft | 169 kts | 248° |
| 2026-04-27 12:21 | 1.46816 | 110.30558 | 2148 ft | 179 kts | 248° |
| 2026-04-27 12:21 | 1.46323 | 110.29375 | 2572 ft | 192 kts | 248° |
| 2026-04-27 12:21 | 1.45787 | 110.28081 | 2976 ft | 208 kts | 248° |
| 2026-04-27 12:22 | 1.45203 | 110.26669 | 3305 ft | 231 kts | 248° |
| 2026-04-27 12:22 | 1.44567 | 110.25128 | 3772 ft | 249 kts | 248° |
| 2026-04-27 12:22 | 1.43880 | 110.23460 | 4255 ft | 267 kts | 248° |
| 2026-04-27 12:22 | 1.43156 | 110.21704 | 4891 ft | 278 kts | 247° |
| 2026-04-27 12:23 | 1.42416 | 110.19907 | 5723 ft | 281 kts | 247° |
| 2026-04-27 12:23 | 1.41669 | 110.18090 | 6573 ft | 283 kts | 246° |
| 2026-04-27 12:23 | 1.40711 | 110.16397 | 7325 ft | 286 kts | 226° |
| 2026-04-27 12:23 | 1.39177 | 110.15324 | 8039 ft | 286 kts | 199° |
| 2026-04-27 12:24 | 1.36562 | 110.15125 | 9002 ft | 287 kts | 163° |
| 2026-04-27 12:24 | 1.35305 | 110.15550 | 9485 ft | 287 kts | 157° |
| 2026-04-27 12:24 | 1.33336 | 110.16081 | 10162 ft | 295 kts | 174° |
| 2026-04-27 12:24 | 1.31233 | 110.15951 | 10600 ft | 311 kts | 185° |
| 2026-04-27 12:25 | 1.29019 | 110.15649 | 10934 ft | 329 kts | 187° |
| 2026-04-27 12:25 | 1.25854 | 110.15151 | 11336 ft | 353 kts | 188° |
| 2026-04-27 12:25 | 1.24209 | 110.14880 | 11535 ft | 364 kts | 188° |
| 2026-04-27 12:25 | 1.21689 | 110.14381 | 12015 ft | 374 kts | 194° |
| 2026-04-27 12:26 | 1.19233 | 110.13472 | 12645 ft | 378 kts | 205° |
| 2026-04-27 12:26 | 1.16937 | 110.12143 | 13258 ft | 382 kts | 213° |
| 2026-04-27 12:26 | 1.14715 | 110.10619 | 13863 ft | 386 kts | 214° |
| 2026-04-27 12:26 | 1.12513 | 110.09068 | 14448 ft | 390 kts | 214° |
| 2026-04-27 12:27 | 1.10274 | 110.07492 | 14967 ft | 395 kts | 214° |
| 2026-04-27 12:27 | 1.07988 | 110.05891 | 15188 ft | 409 kts | 214° |
| 2026-04-27 12:27 | 1.05539 | 110.04340 | 15384 ft | 420 kts | 204° |
| 2026-04-27 12:27 | 1.02744 | 110.03354 | 15594 ft | 430 kts | 195° |
| 2026-04-27 12:28 | 0.99779 | 110.02573 | 15828 ft | 440 kts | 193° |
| 2026-04-27 12:28 | 0.96794 | 110.01806 | 16237 ft | 443 kts | 193° |
| 2026-04-27 12:28 | 0.93789 | 110.01002 | 16699 ft | 445 kts | 194° |
| 2026-04-27 12:28 | 0.90777 | 110.00166 | 17139 ft | 448 kts | 194° |
| 2026-04-27 12:29 | 0.87813 | 109.99322 | 17557 ft | 450 kts | 195° |
| 2026-04-27 12:29 | 0.84773 | 109.98444 | 17833 ft | 452 kts | 195° |
| 2026-04-27 12:29 | 0.81702 | 109.97549 | 17872 ft | 452 kts | 195° |
| 2026-04-27 12:29 | 0.78721 | 109.96675 | 17880 ft | 452 kts | 195° |
| 2026-04-27 12:30 | 0.75659 | 109.95774 | 17883 ft | 451 kts | 195° |
| 2026-04-27 12:30 | 0.72590 | 109.94868 | 17878 ft | 451 kts | 195° |
| 2026-04-27 12:30 | 0.69577 | 109.93978 | 17875 ft | 451 kts | 195° |
| 2026-04-27 12:30 | 0.66539 | 109.93080 | 17872 ft | 451 kts | 195° |
| 2026-04-27 12:31 | 0.63492 | 109.92179 | 17870 ft | 450 kts | 195° |
| 2026-04-27 12:31 | 0.60461 | 109.91282 | 17867 ft | 450 kts | 195° |
| 2026-04-27 12:31 | 0.57473 | 109.90398 | 17865 ft | 450 kts | 195° |
| 2026-04-27 12:31 | 0.54401 | 109.89490 | 17865 ft | 450 kts | 195° |
| 2026-04-27 12:32 | 0.51387 | 109.88598 | 17865 ft | 450 kts | 195° |
| 2026-04-27 12:32 | 0.48318 | 109.87690 | 17863 ft | 450 kts | 195° |
| 2026-04-27 12:32 | 0.45282 | 109.86792 | 17859 ft | 450 kts | 195° |
| 2026-04-27 12:32 | 0.42257 | 109.85895 | 17854 ft | 449 kts | 195° |
| 2026-04-27 12:33 | 0.39278 | 109.85014 | 17635 ft | 443 kts | 195° |
| 2026-04-27 12:33 | 0.36294 | 109.84132 | 16916 ft | 441 kts | 195° |
| 2026-04-27 12:33 | 0.33330 | 109.83255 | 16113 ft | 439 kts | 195° |
| 2026-04-27 12:33 | 0.30375 | 109.82380 | 15391 ft | 436 kts | 195° |
| 2026-04-27 12:34 | 0.27472 | 109.81519 | 14686 ft | 432 kts | 195° |
| 2026-04-27 12:34 | 0.24603 | 109.80670 | 13980 ft | 428 kts | 195° |
| 2026-04-27 12:34 | 0.21741 | 109.79823 | 13264 ft | 425 kts | 195° |
| 2026-04-27 12:34 | 0.18940 | 109.78995 | 12574 ft | 421 kts | 195° |
| 2026-04-27 12:35 | 0.16126 | 109.78162 | 11950 ft | 415 kts | 195° |
| 2026-04-27 12:35 | 0.13390 | 109.77351 | 11488 ft | 406 kts | 195° |
| 2026-04-27 12:35 | 0.10666 | 109.76546 | 11031 ft | 397 kts | 195° |
| 2026-04-27 12:35 | 0.08029 | 109.75764 | 10582 ft | 385 kts | 195° |
| 2026-04-27 12:36 | 0.05545 | 109.75028 | 10364 ft | 355 kts | 195° |
| 2026-04-27 12:36 | 0.03256 | 109.74348 | 10224 ft | 326 kts | 195° |
| 2026-04-27 12:36 | 0.01154 | 109.73724 | 10123 ft | 299 kts | 195° |
| 2026-04-27 12:36 | -0.00823 | 109.73138 | 10058 ft | 292 kts | 194° |
| 2026-04-27 12:37 | -0.02804 | 109.72554 | 9780 ft | 293 kts | 194° |
| 2026-04-27 12:37 | -0.04753 | 109.71978 | 9447 ft | 291 kts | 195° |
| 2026-04-27 12:37 | -0.06724 | 109.71396 | 9119 ft | 290 kts | 194° |
| 2026-04-27 12:37 | -0.08682 | 109.70818 | 8798 ft | 288 kts | 195° |
| 2026-04-27 12:38 | -0.10618 | 109.70245 | 8480 ft | 286 kts | 195° |
| 2026-04-27 12:38 | -0.12528 | 109.69684 | 8168 ft | 284 kts | 195° |
| 2026-04-27 12:38 | -0.14443 | 109.69121 | 7855 ft | 282 kts | 195° |
| 2026-04-27 12:38 | -0.16315 | 109.68569 | 7555 ft | 279 kts | 195° |
| 2026-04-27 12:39 | -0.18178 | 109.68018 | 7253 ft | 275 kts | 195° |
| 2026-04-27 12:39 | -0.20023 | 109.67472 | 6951 ft | 271 kts | 195° |
| 2026-04-27 12:39 | -0.21829 | 109.66935 | 6655 ft | 266 kts | 195° |
| 2026-04-27 12:39 | -0.23597 | 109.66412 | 6362 ft | 262 kts | 195° |
| 2026-04-27 12:40 | -0.25351 | 109.65893 | 6072 ft | 259 kts | 195° |
| 2026-04-27 12:40 | -0.27060 | 109.65389 | 5791 ft | 256 kts | 195° |
| 2026-04-27 12:40 | -0.28770 | 109.64867 | 5499 ft | 253 kts | 200° |
| 2026-04-27 12:40 | -0.30234 | 109.63903 | 5191 ft | 253 kts | 229° |
| 2026-04-27 12:41 | -0.31111 | 109.62367 | 4915 ft | 251 kts | 247° |
| 2026-04-27 12:41 | -0.31738 | 109.60764 | 4638 ft | 248 kts | 248° |
| 2026-04-27 12:41 | -0.32361 | 109.59153 | 4363 ft | 246 kts | 247° |
| 2026-04-27 12:41 | -0.32991 | 109.57563 | 4090 ft | 244 kts | 247° |
| 2026-04-27 12:42 | -0.33623 | 109.56001 | 3820 ft | 242 kts | 246° |
| 2026-04-27 12:42 | -0.34254 | 109.54459 | 3553 ft | 239 kts | 246° |
| 2026-04-27 12:42 | -0.34884 | 109.52926 | 3288 ft | 237 kts | 246° |
| 2026-04-27 12:42 | -0.35496 | 109.51376 | 3047 ft | 234 kts | 254° |
| 2026-04-27 12:43 | -0.35517 | 109.49803 | 2990 ft | 221 kts | 288° |
| 2026-04-27 12:43 | -0.34755 | 109.48529 | 2985 ft | 212 kts | 318° |
| 2026-04-27 12:43 | -0.33500 | 109.47767 | 2997 ft | 212 kts | 339° |
| 2026-04-27 12:43 | -0.32106 | 109.47243 | 2996 ft | 212 kts | 340° |
| 2026-04-27 12:44 | -0.30723 | 109.46731 | 2996 ft | 211 kts | 339° |
| 2026-04-27 12:44 | -0.29345 | 109.46201 | 2994 ft | 211 kts | 339° |
| 2026-04-27 12:44 | -0.27973 | 109.45657 | 2991 ft | 211 kts | 338° |
| 2026-04-27 12:44 | -0.26586 | 109.45099 | 2881 ft | 215 kts | 338° |
| 2026-04-27 12:45 | -0.25153 | 109.44519 | 2295 ft | 228 kts | 338° |
| 2026-04-27 12:45 | -0.23664 | 109.43914 | 1787 ft | 230 kts | 338° |
| 2026-04-27 12:45 | -0.22176 | 109.43309 | 1396 ft | 227 kts | 338° |
| 2026-04-27 12:45 | -0.20761 | 109.42731 | 1284 ft | 213 kts | 338° |
| 2026-04-27 12:46 | -0.19470 | 109.42203 | 1417 ft | 187 kts | 338° |
| 2026-04-27 12:46 | -0.18270 | 109.41713 | 924 ft | 185 kts | 339° |
| 2026-04-27 12:46 | -0.17097 | 109.41223 | 388 ft | 184 kts | 337° |
| 2026-04-27 12:46 | -0.15934 | 109.40749 | 64 ft | 170 kts | 338° |
| 2026-04-27 12:47 | -0.14899 | 109.40321 | 537 ft | 161 kts | 340° |
| 2026-04-27 12:47 | -0.13812 | 109.39894 | 1079 ft | 178 kts | 340° |
| 2026-04-27 12:47 | -0.12567 | 109.39735 | 1801 ft | 184 kts | 17° |
| 2026-04-27 12:47 | -0.11592 | 109.40478 | 2446 ft | 184 kts | 60° |
| 2026-04-27 12:48 | -0.11281 | 109.41747 | 2856 ft | 200 kts | 97° |
| 2026-04-27 12:48 | -0.11895 | 109.43068 | 2946 ft | 221 kts | 130° |
| 2026-04-27 12:48 | -0.12929 | 109.44240 | 2970 ft | 223 kts | 131° |
| 2026-04-27 12:48 | -0.13955 | 109.45412 | 2983 ft | 224 kts | 131° |
| 2026-04-27 12:49 | -0.14970 | 109.46588 | 2986 ft | 223 kts | 131° |
| 2026-04-27 12:49 | -0.23085 | 109.56105 | 2999 ft | 224 kts | 130° |
| 2026-04-27 12:49 | -0.24139 | 109.57258 | 2987 ft | 223 kts | 143° |
| 2026-04-27 12:49 | -0.25597 | 109.57748 | 2984 ft | 224 kts | 184° |
| 2026-04-27 12:50 | -0.27018 | 109.57244 | 2987 ft | 212 kts | 217° |
| 2026-04-27 12:50 | -0.28106 | 109.56278 | 3000 ft | 209 kts | 223° |
| 2026-04-27 12:50 | -0.29167 | 109.55272 | 2995 ft | 208 kts | 222° |
| 2026-04-27 12:50 | -0.30244 | 109.54297 | 2993 ft | 208 kts | 221° |
| 2026-04-27 12:51 | -0.31340 | 109.53346 | 2991 ft | 208 kts | 220° |
| 2026-04-27 12:51 | -0.32465 | 109.52389 | 2990 ft | 208 kts | 219° |
| 2026-04-27 12:51 | -0.33445 | 109.51334 | 2981 ft | 209 kts | 242° |
| 2026-04-27 12:51 | -0.33773 | 109.49442 | 2994 ft | 211 kts | 281° |
| 2026-04-27 12:52 | -0.33451 | 109.48507 | 2996 ft | 212 kts | 300° |
| 2026-04-27 12:52 | -0.32447 | 109.47416 | 2993 ft | 212 kts | 329° |
| 2026-04-27 12:52 | -0.31095 | 109.46803 | 3002 ft | 212 kts | 340° |
| 2026-04-27 12:52 | -0.29709 | 109.46289 | 3000 ft | 212 kts | 340° |
| 2026-04-27 12:53 | -0.26957 | 109.45232 | 2814 ft | 208 kts | 339° |
| 2026-04-27 12:53 | -0.25604 | 109.44692 | 2418 ft | 208 kts | 338° |
| 2026-04-27 12:53 | -0.24259 | 109.44147 | 2008 ft | 209 kts | 338° |
| 2026-04-27 12:54 | -0.22906 | 109.43600 | 1590 ft | 212 kts | 338° |
| 2026-04-27 12:54 | -0.21461 | 109.43011 | 1262 ft | 222 kts | 338° |
| 2026-04-27 12:54 | -0.20111 | 109.42461 | 1034 ft | 197 kts | 338° |
| 2026-04-27 12:54 | -0.18875 | 109.41956 | 691 ft | 183 kts | 339° |
| 2026-04-27 12:55 | -0.17737 | 109.41489 | 411 ft | 169 kts | 338° |
| 2026-04-27 12:55 | -0.16971 | 109.41152 | 231 ft | 158 kts | 340° |
| 2026-04-27 12:55 | -0.15993 | 109.40765 | 30 ft | 142 kts | 339° |
| 2026-04-27 12:55 | -0.15173 | 109.40432 | 10 ft | 104 kts | 335° |
| 2026-04-27 12:56 | -0.14658 | 109.40221 | 10 ft | 54 kts | 337° |
| 2026-04-27 12:56 | -0.14459 | 109.40144 | 9 ft | 12 kts | 357° |
| 2026-04-27 12:56 | -0.14417 | 109.40212 | 9 ft | 12 kts | 87° |
| 2026-04-27 12:56 | -0.14479 | 109.40254 | 10 ft | 11 kts | 157° |
| 2026-04-27 12:57 | -0.14557 | 109.40286 | 11 ft | 12 kts | 158° |
| 2026-04-27 12:57 | -0.14636 | 109.40318 | 11 ft | 12 kts | 158° |
| 2026-04-27 12:57 | -0.14703 | 109.40345 | 12 ft | 6 kts | 158° |
| 2026-04-27 12:57 | -0.14719 | 109.40356 | 12 ft | 4 kts | 126° |
| 2026-04-27 12:58 | -0.14720 | 109.40362 | 12 ft | 0 kts | 80° |
| 2026-04-27 12:58 | -0.14711 | 109.40377 | 12 ft | 3 kts | 69° |
| 2026-04-27 12:58 | -0.14709 | 109.40384 | 12 ft | 0 kts | 69° |